HVN1671 VVCI-VVDN
Flight info
| Callsign | HVN1671 |
|---|---|
| Flight time | 0h 52m |
| Altitude | 34000 |
| Route | VANUC1A VANUC DCT VIDAD Q1 CAHEO CAHEO2M |
| Aircraft | A321/M-SDE3FGHIRWY/LB1 |
Departure
| Time | 2026-04-18 11:06 |
|---|---|
| Airport | Cat Bi International Airport (VVCI) |
Arrival
| Time | 2026-04-18 11:59 |
|---|---|
| Airport | Da Nang International Airport (VVDN) |
| Time | Latitude | Longitude | Altitude | Speed | Heading |
|---|---|---|---|---|---|
| 2026-04-18 10:42 | 20.82147 | 106.72501 | 25 ft | 0 kts | 342° |
| 2026-04-18 10:55 | 20.82138 | 106.72504 | 27 ft | 4 kts | 342° |
| 2026-04-18 10:55 | 20.82112 | 106.72513 | 28 ft | 4 kts | 343° |
| 2026-04-18 10:55 | 20.82087 | 106.72522 | 27 ft | 4 kts | 340° |
| 2026-04-18 10:56 | 20.82062 | 106.72533 | 29 ft | 4 kts | 322° |
| 2026-04-18 10:56 | 20.82050 | 106.72550 | 29 ft | 2 kts | 259° |
| 2026-04-18 10:56 | 20.82055 | 106.72575 | 28 ft | 4 kts | 254° |
| 2026-04-18 10:56 | 20.82064 | 106.72603 | 29 ft | 4 kts | 252° |
| 2026-04-18 10:57 | 20.82065 | 106.72609 | 29 ft | 0 kts | 252° |
| 2026-04-18 10:59 | 20.82065 | 106.72607 | 29 ft | 2 kts | 252° |
| 2026-04-18 10:59 | 20.82051 | 106.72576 | 27 ft | 7 kts | 231° |
| 2026-04-18 10:59 | 20.81995 | 106.72575 | 25 ft | 11 kts | 159° |
| 2026-04-18 10:59 | 20.81944 | 106.72515 | 25 ft | 15 kts | 253° |
| 2026-04-18 11:00 | 20.81907 | 106.72387 | 26 ft | 21 kts | 252° |
| 2026-04-18 11:00 | 20.81862 | 106.72264 | 24 ft | 10 kts | 217° |
| 2026-04-18 11:00 | 20.81779 | 106.72279 | 24 ft | 15 kts | 164° |
| 2026-04-18 11:00 | 20.81681 | 106.72292 | 24 ft | 11 kts | 227° |
| 2026-04-18 11:01 | 20.81657 | 106.72199 | 23 ft | 14 kts | 255° |
| 2026-04-18 11:01 | 20.81627 | 106.72094 | 22 ft | 15 kts | 252° |
| 2026-04-18 11:01 | 20.81593 | 106.71984 | 22 ft | 16 kts | 252° |
| 2026-04-18 11:02 | 20.81528 | 106.71765 | 24 ft | 16 kts | 252° |
| 2026-04-18 11:02 | 20.81494 | 106.71653 | 25 ft | 15 kts | 252° |
| 2026-04-18 11:02 | 20.81462 | 106.71545 | 26 ft | 15 kts | 252° |
| 2026-04-18 11:02 | 20.81423 | 106.71415 | 27 ft | 22 kts | 252° |
| 2026-04-18 11:03 | 20.81370 | 106.71239 | 27 ft | 28 kts | 252° |
| 2026-04-18 11:03 | 20.81306 | 106.71026 | 28 ft | 30 kts | 252° |
| 2026-04-18 11:03 | 20.81341 | 106.70912 | 27 ft | 15 kts | 339° |
| 2026-04-18 11:03 | 20.81376 | 106.70833 | 28 ft | 13 kts | 225° |
| 2026-04-18 11:04 | 20.81340 | 106.70834 | 25 ft | 0 kts | 156° |
| 2026-04-18 11:04 | 20.81338 | 106.70835 | 25 ft | 1 kts | 156° |
| 2026-04-18 11:04 | 20.81331 | 106.70838 | 25 ft | 1 kts | 154° |
| 2026-04-18 11:04 | 20.81325 | 106.70846 | 26 ft | 1 kts | 129° |
| 2026-04-18 11:05 | 20.81320 | 106.70859 | 27 ft | 3 kts | 111° |
| 2026-04-18 11:05 | 20.81311 | 106.70888 | 26 ft | 5 kts | 108° |
| 2026-04-18 11:05 | 20.81296 | 106.70926 | 25 ft | 6 kts | 127° |
| 2026-04-18 11:05 | 20.81291 | 106.70974 | 28 ft | 10 kts | 77° |
| 2026-04-18 11:06 | 20.81360 | 106.71207 | 28 ft | 66 kts | 72° |
| 2026-04-18 11:06 | 20.81565 | 106.71891 | 24 ft | 127 kts | 72° |
| 2026-04-18 11:06 | 20.81884 | 106.72966 | 61 ft | 170 kts | 73° |
| 2026-04-18 11:06 | 20.82235 | 106.74151 | 756 ft | 164 kts | 75° |
| 2026-04-18 11:07 | 20.82492 | 106.75331 | 1401 ft | 162 kts | 92° |
| 2026-04-18 11:07 | 20.82198 | 106.76477 | 1900 ft | 168 kts | 121° |
| 2026-04-18 11:07 | 20.81284 | 106.77348 | 2070 ft | 191 kts | 155° |
| 2026-04-18 11:07 | 20.79900 | 106.77477 | 2212 ft | 216 kts | 193° |
| 2026-04-18 11:08 | 20.78467 | 106.76749 | 2340 ft | 241 kts | 207° |
| 2026-04-18 11:08 | 20.76918 | 106.75833 | 2604 ft | 261 kts | 207° |
| 2026-04-18 11:08 | 20.75316 | 106.74875 | 3241 ft | 264 kts | 208° |
| 2026-04-18 11:08 | 20.73720 | 106.73920 | 3869 ft | 267 kts | 208° |
| 2026-04-18 11:09 | 20.72091 | 106.72950 | 4540 ft | 269 kts | 209° |
| 2026-04-18 11:09 | 20.70366 | 106.72167 | 5140 ft | 273 kts | 189° |
| 2026-04-18 11:09 | 20.68456 | 106.72080 | 5727 ft | 277 kts | 181° |
| 2026-04-18 11:09 | 20.66513 | 106.72089 | 6360 ft | 279 kts | 181° |
| 2026-04-18 11:10 | 20.64584 | 106.72109 | 6914 ft | 283 kts | 182° |
| 2026-04-18 11:10 | 20.62605 | 106.72129 | 7472 ft | 285 kts | 182° |
| 2026-04-18 11:10 | 20.60606 | 106.72143 | 8036 ft | 288 kts | 182° |
| 2026-04-18 11:10 | 20.58583 | 106.72152 | 8611 ft | 291 kts | 182° |
| 2026-04-18 11:11 | 20.56543 | 106.72158 | 9154 ft | 295 kts | 182° |
| 2026-04-18 11:11 | 20.54477 | 106.72176 | 9708 ft | 298 kts | 180° |
| 2026-04-18 11:11 | 20.52394 | 106.72298 | 10201 ft | 302 kts | 178° |
| 2026-04-18 11:11 | 20.50234 | 106.72489 | 10330 ft | 321 kts | 176° |
| 2026-04-18 11:12 | 20.47979 | 106.72713 | 10455 ft | 338 kts | 176° |
| 2026-04-18 11:12 | 20.45581 | 106.72958 | 10566 ft | 353 kts | 176° |
| 2026-04-18 11:12 | 20.43079 | 106.73207 | 10743 ft | 366 kts | 176° |
| 2026-04-18 11:12 | 20.40525 | 106.73449 | 11130 ft | 370 kts | 176° |
| 2026-04-18 11:13 | 20.37941 | 106.73686 | 11571 ft | 373 kts | 177° |
| 2026-04-18 11:13 | 20.35344 | 106.73919 | 12025 ft | 376 kts | 177° |
| 2026-04-18 11:13 | 20.32722 | 106.74150 | 12485 ft | 379 kts | 177° |
| 2026-04-18 11:13 | 20.30114 | 106.74377 | 12930 ft | 382 kts | 178° |
| 2026-04-18 11:14 | 20.27454 | 106.74607 | 13368 ft | 385 kts | 178° |
| 2026-04-18 11:14 | 20.24772 | 106.74842 | 13787 ft | 388 kts | 178° |
| 2026-04-18 11:14 | 20.22072 | 106.75081 | 14159 ft | 390 kts | 178° |
| 2026-04-18 11:14 | 20.19356 | 106.75322 | 14538 ft | 393 kts | 178° |
| 2026-04-18 11:15 | 20.16620 | 106.75567 | 14909 ft | 395 kts | 178° |
| 2026-04-18 11:15 | 20.13869 | 106.75815 | 15276 ft | 398 kts | 178° |
| 2026-04-18 11:15 | 20.11100 | 106.76065 | 15670 ft | 400 kts | 178° |
| 2026-04-18 11:15 | 20.08316 | 106.76313 | 16050 ft | 402 kts | 178° |
| 2026-04-18 11:16 | 20.05517 | 106.76561 | 16435 ft | 404 kts | 178° |
| 2026-04-18 11:16 | 20.02700 | 106.76808 | 16807 ft | 407 kts | 178° |
| 2026-04-18 11:16 | 19.99901 | 106.77055 | 17178 ft | 409 kts | 178° |
| 2026-04-18 11:16 | 19.97042 | 106.77307 | 17542 ft | 411 kts | 178° |
| 2026-04-18 11:17 | 19.94184 | 106.77560 | 17902 ft | 413 kts | 178° |
| 2026-04-18 11:17 | 19.91347 | 106.77811 | 18230 ft | 415 kts | 178° |
| 2026-04-18 11:17 | 19.88454 | 106.78067 | 18517 ft | 417 kts | 178° |
| 2026-04-18 11:17 | 19.85554 | 106.78322 | 18813 ft | 419 kts | 178° |
| 2026-04-18 11:18 | 19.82642 | 106.78576 | 19112 ft | 421 kts | 178° |
| 2026-04-18 11:18 | 19.79716 | 106.78833 | 19398 ft | 423 kts | 178° |
| 2026-04-18 11:18 | 19.76775 | 106.79092 | 19685 ft | 425 kts | 178° |
| 2026-04-18 11:18 | 19.73823 | 106.79350 | 19962 ft | 427 kts | 178° |
| 2026-04-18 11:19 | 19.70892 | 106.79605 | 20245 ft | 428 kts | 178° |
| 2026-04-18 11:19 | 19.67904 | 106.79866 | 20522 ft | 430 kts | 178° |
| 2026-04-18 11:19 | 19.64905 | 106.80133 | 20805 ft | 432 kts | 178° |
| 2026-04-18 11:19 | 19.61904 | 106.80402 | 21100 ft | 433 kts | 178° |
| 2026-04-18 11:20 | 19.58920 | 106.80669 | 21372 ft | 435 kts | 178° |
| 2026-04-18 11:20 | 19.55888 | 106.80940 | 21645 ft | 437 kts | 178° |
| 2026-04-18 11:20 | 19.52844 | 106.81211 | 21919 ft | 439 kts | 178° |
| 2026-04-18 11:20 | 19.49784 | 106.81482 | 22194 ft | 441 kts | 178° |
| 2026-04-18 11:21 | 19.46721 | 106.81750 | 22465 ft | 442 kts | 178° |
| 2026-04-18 11:21 | 19.43641 | 106.82019 | 22733 ft | 444 kts | 178° |
| 2026-04-18 11:21 | 19.40592 | 106.82282 | 23000 ft | 446 kts | 178° |
| 2026-04-18 11:21 | 19.37477 | 106.82553 | 23266 ft | 448 kts | 178° |
| 2026-04-18 11:22 | 19.34368 | 106.82823 | 23517 ft | 450 kts | 178° |
| 2026-04-18 11:22 | 19.31241 | 106.83095 | 23728 ft | 451 kts | 178° |
| 2026-04-18 11:22 | 19.28099 | 106.83371 | 23950 ft | 453 kts | 178° |
| 2026-04-18 11:22 | 19.24948 | 106.83652 | 24165 ft | 454 kts | 178° |
| 2026-04-18 11:23 | 19.21826 | 106.83932 | 24378 ft | 456 kts | 178° |
| 2026-04-18 11:23 | 19.18653 | 106.84214 | 24587 ft | 458 kts | 178° |
| 2026-04-18 11:23 | 19.15472 | 106.84495 | 24800 ft | 459 kts | 178° |
| 2026-04-18 11:23 | 19.12272 | 106.84774 | 25004 ft | 461 kts | 178° |
| 2026-04-18 11:24 | 19.09058 | 106.85051 | 25215 ft | 463 kts | 178° |
| 2026-04-18 11:24 | 19.05845 | 106.85328 | 25426 ft | 464 kts | 178° |
| 2026-04-18 11:24 | 19.02613 | 106.85608 | 25635 ft | 466 kts | 178° |
| 2026-04-18 11:24 | 18.99398 | 106.85889 | 25834 ft | 468 kts | 178° |
| 2026-04-18 11:25 | 18.96148 | 106.86172 | 26043 ft | 470 kts | 178° |
| 2026-04-18 11:25 | 18.92878 | 106.86456 | 26244 ft | 471 kts | 178° |
| 2026-04-18 11:25 | 18.89593 | 106.86742 | 26456 ft | 473 kts | 178° |
| 2026-04-18 11:25 | 18.86309 | 106.87136 | 26652 ft | 477 kts | 172° |
| 2026-04-18 11:26 | 18.83116 | 106.88017 | 26839 ft | 481 kts | 162° |
| 2026-04-18 11:26 | 18.80010 | 106.89382 | 27025 ft | 484 kts | 158° |
| 2026-04-18 11:26 | 18.76926 | 106.90830 | 27222 ft | 486 kts | 158° |
| 2026-04-18 11:26 | 18.73806 | 106.92290 | 27418 ft | 488 kts | 158° |
| 2026-04-18 11:27 | 18.70728 | 106.93727 | 27606 ft | 489 kts | 158° |
| 2026-04-18 11:27 | 18.67602 | 106.95179 | 27790 ft | 491 kts | 158° |
| 2026-04-18 11:27 | 18.64464 | 106.96633 | 27984 ft | 492 kts | 158° |
| 2026-04-18 11:27 | 18.61322 | 106.98089 | 28165 ft | 493 kts | 158° |
| 2026-04-18 11:28 | 18.58175 | 106.99550 | 28317 ft | 494 kts | 158° |
| 2026-04-18 11:28 | 18.55028 | 107.01013 | 28484 ft | 495 kts | 158° |
| 2026-04-18 11:28 | 18.51897 | 107.02472 | 28633 ft | 497 kts | 158° |
| 2026-04-18 11:28 | 18.48727 | 107.03946 | 28789 ft | 498 kts | 158° |
| 2026-04-18 11:29 | 18.45551 | 107.05416 | 28924 ft | 499 kts | 158° |
| 2026-04-18 11:29 | 18.42373 | 107.06888 | 29118 ft | 499 kts | 158° |
| 2026-04-18 11:29 | 18.39187 | 107.08369 | 29328 ft | 498 kts | 158° |
| 2026-04-18 11:29 | 18.36044 | 107.09831 | 29525 ft | 498 kts | 158° |
| 2026-04-18 11:30 | 18.32867 | 107.11311 | 29714 ft | 498 kts | 158° |
| 2026-04-18 11:30 | 18.29684 | 107.12794 | 29863 ft | 499 kts | 158° |
| 2026-04-18 11:30 | 18.26498 | 107.14276 | 30016 ft | 500 kts | 158° |
| 2026-04-18 11:30 | 18.23310 | 107.15753 | 30183 ft | 500 kts | 158° |
| 2026-04-18 11:31 | 18.20160 | 107.17211 | 30369 ft | 499 kts | 159° |
| 2026-04-18 11:31 | 18.16979 | 107.18682 | 30555 ft | 498 kts | 159° |
| 2026-04-18 11:31 | 18.13806 | 107.20150 | 30743 ft | 497 kts | 159° |
| 2026-04-18 11:31 | 18.10635 | 107.21617 | 30936 ft | 496 kts | 159° |
| 2026-04-18 11:32 | 18.07485 | 107.23073 | 31131 ft | 495 kts | 159° |
| 2026-04-18 11:32 | 18.04380 | 107.24520 | 31319 ft | 494 kts | 158° |
| 2026-04-18 11:32 | 18.01251 | 107.26002 | 31513 ft | 493 kts | 158° |
| 2026-04-18 11:32 | 17.98134 | 107.27495 | 31705 ft | 492 kts | 158° |
| 2026-04-18 11:33 | 17.95020 | 107.28991 | 31862 ft | 491 kts | 158° |
| 2026-04-18 11:33 | 17.91937 | 107.30471 | 31905 ft | 485 kts | 158° |
| 2026-04-18 11:33 | 17.85807 | 107.33393 | 31903 ft | 482 kts | 159° |
| 2026-04-18 11:34 | 17.79687 | 107.36279 | 31906 ft | 481 kts | 159° |
| 2026-04-18 11:34 | 17.73565 | 107.39169 | 31906 ft | 481 kts | 159° |
| 2026-04-18 11:35 | 17.67464 | 107.42062 | 31907 ft | 481 kts | 158° |
| 2026-04-18 11:35 | 17.61396 | 107.44938 | 31912 ft | 480 kts | 158° |
| 2026-04-18 11:36 | 17.55334 | 107.47802 | 31925 ft | 479 kts | 158° |
| 2026-04-18 11:36 | 17.49250 | 107.50677 | 31924 ft | 478 kts | 158° |
| 2026-04-18 11:37 | 17.43182 | 107.53551 | 31924 ft | 478 kts | 158° |
| 2026-04-18 11:37 | 17.37120 | 107.56412 | 31924 ft | 477 kts | 158° |
| 2026-04-18 11:38 | 17.34121 | 107.57824 | 31657 ft | 478 kts | 158° |
| 2026-04-18 11:38 | 17.31070 | 107.59261 | 30893 ft | 480 kts | 158° |
| 2026-04-18 11:38 | 17.28036 | 107.60690 | 30337 ft | 476 kts | 158° |
| 2026-04-18 11:38 | 17.25021 | 107.62110 | 29729 ft | 474 kts | 158° |
| 2026-04-18 11:39 | 17.22015 | 107.63522 | 29134 ft | 470 kts | 158° |
| 2026-04-18 11:39 | 17.19038 | 107.64920 | 28556 ft | 466 kts | 158° |
| 2026-04-18 11:39 | 17.16129 | 107.66289 | 28003 ft | 461 kts | 158° |
| 2026-04-18 11:39 | 17.13211 | 107.67664 | 27438 ft | 458 kts | 157° |
| 2026-04-18 11:40 | 17.10318 | 107.69038 | 26888 ft | 453 kts | 157° |
| 2026-04-18 11:40 | 17.07456 | 107.70420 | 26347 ft | 450 kts | 156° |
| 2026-04-18 11:40 | 17.04629 | 107.71800 | 25811 ft | 446 kts | 156° |
| 2026-04-18 11:40 | 17.01854 | 107.73161 | 25283 ft | 443 kts | 156° |
| 2026-04-18 11:41 | 16.99069 | 107.74525 | 24761 ft | 439 kts | 156° |
| 2026-04-18 11:41 | 16.96311 | 107.75871 | 24249 ft | 436 kts | 156° |
| 2026-04-18 11:41 | 16.93567 | 107.77206 | 23738 ft | 433 kts | 156° |
| 2026-04-18 11:41 | 16.90844 | 107.78528 | 23205 ft | 430 kts | 156° |
| 2026-04-18 11:42 | 16.88135 | 107.79840 | 22714 ft | 425 kts | 156° |
| 2026-04-18 11:42 | 16.85471 | 107.81128 | 22247 ft | 419 kts | 157° |
| 2026-04-18 11:42 | 16.82869 | 107.82385 | 21807 ft | 414 kts | 157° |
| 2026-04-18 11:42 | 16.80262 | 107.83644 | 21351 ft | 409 kts | 157° |
| 2026-04-18 11:43 | 16.77689 | 107.84888 | 20912 ft | 404 kts | 157° |
| 2026-04-18 11:43 | 16.76004 | 107.85703 | 20625 ft | 401 kts | 157° |
| 2026-04-18 11:43 | 16.73492 | 107.86919 | 20184 ft | 396 kts | 157° |
| 2026-04-18 11:43 | 16.70998 | 107.88128 | 19741 ft | 392 kts | 157° |
| 2026-04-18 11:44 | 16.68532 | 107.89325 | 19305 ft | 388 kts | 157° |
| 2026-04-18 11:44 | 16.65302 | 107.90890 | 18699 ft | 384 kts | 158° |
| 2026-04-18 11:44 | 16.63695 | 107.91667 | 18400 ft | 382 kts | 158° |
| 2026-04-18 11:44 | 16.61294 | 107.92827 | 17902 ft | 379 kts | 158° |
| 2026-04-18 11:45 | 16.58902 | 107.93981 | 17431 ft | 375 kts | 157° |
| 2026-04-18 11:45 | 16.56536 | 107.95122 | 16966 ft | 371 kts | 157° |
| 2026-04-18 11:45 | 16.54197 | 107.96216 | 16505 ft | 366 kts | 161° |
| 2026-04-18 11:45 | 16.51775 | 107.96950 | 16058 ft | 360 kts | 170° |
| 2026-04-18 11:46 | 16.49336 | 107.97492 | 15608 ft | 356 kts | 169° |
| 2026-04-18 11:46 | 16.46949 | 107.98030 | 15162 ft | 353 kts | 169° |
| 2026-04-18 11:46 | 16.44557 | 107.98575 | 14724 ft | 350 kts | 168° |
| 2026-04-18 11:46 | 16.42191 | 107.99115 | 14273 ft | 347 kts | 168° |
| 2026-04-18 11:47 | 16.39841 | 107.99650 | 13838 ft | 344 kts | 168° |
| 2026-04-18 11:47 | 16.37506 | 108.00177 | 13368 ft | 341 kts | 168° |
| 2026-04-18 11:47 | 16.35221 | 108.00690 | 12916 ft | 337 kts | 168° |
| 2026-04-18 11:47 | 16.32939 | 108.01204 | 12494 ft | 333 kts | 167° |
| 2026-04-18 11:48 | 16.30680 | 108.01712 | 12064 ft | 330 kts | 167° |
| 2026-04-18 11:48 | 16.28441 | 108.02213 | 11645 ft | 327 kts | 167° |
| 2026-04-18 11:48 | 16.26241 | 108.02706 | 11216 ft | 325 kts | 167° |
| 2026-04-18 11:48 | 16.24032 | 108.03204 | 10800 ft | 323 kts | 166° |
| 2026-04-18 11:49 | 16.21846 | 108.03700 | 10443 ft | 318 kts | 166° |
| 2026-04-18 11:49 | 16.19717 | 108.04180 | 10313 ft | 306 kts | 166° |
| 2026-04-18 11:49 | 16.17653 | 108.04645 | 10057 ft | 300 kts | 166° |
| 2026-04-18 11:49 | 16.15627 | 108.05101 | 9860 ft | 297 kts | 166° |
| 2026-04-18 11:50 | 16.13637 | 108.05547 | 9740 ft | 296 kts | 166° |
| 2026-04-18 11:50 | 16.11621 | 108.05999 | 9608 ft | 296 kts | 166° |
| 2026-04-18 11:50 | 16.09574 | 108.06457 | 9043 ft | 303 kts | 166° |
| 2026-04-18 11:50 | 16.07538 | 108.06915 | 8820 ft | 293 kts | 166° |
| 2026-04-18 11:51 | 16.05613 | 108.07347 | 8635 ft | 274 kts | 166° |
| 2026-04-18 11:51 | 16.03779 | 108.07760 | 8189 ft | 267 kts | 166° |
| 2026-04-18 11:51 | 16.01971 | 108.08167 | 7866 ft | 264 kts | 167° |
| 2026-04-18 11:51 | 16.00192 | 108.08488 | 7590 ft | 261 kts | 169° |
| 2026-04-18 11:52 | 15.98388 | 108.08751 | 7230 ft | 261 kts | 171° |
| 2026-04-18 11:52 | 15.96582 | 108.08993 | 6865 ft | 263 kts | 171° |
| 2026-04-18 11:52 | 15.94775 | 108.09232 | 6536 ft | 262 kts | 171° |
| 2026-04-18 11:52 | 15.92976 | 108.09472 | 6226 ft | 259 kts | 171° |
| 2026-04-18 11:53 | 15.91202 | 108.09715 | 5883 ft | 256 kts | 171° |
| 2026-04-18 11:53 | 15.89469 | 108.09959 | 5491 ft | 252 kts | 172° |
| 2026-04-18 11:53 | 15.87755 | 108.10266 | 5089 ft | 245 kts | 160° |
| 2026-04-18 11:53 | 15.86440 | 108.11245 | 5014 ft | 230 kts | 127° |
| 2026-04-18 11:54 | 15.85881 | 108.12757 | 4704 ft | 226 kts | 93° |
| 2026-04-18 11:54 | 15.86094 | 108.14376 | 4302 ft | 226 kts | 80° |
| 2026-04-18 11:54 | 15.86371 | 108.15980 | 3964 ft | 224 kts | 81° |
| 2026-04-18 11:54 | 15.86622 | 108.17570 | 3620 ft | 222 kts | 81° |
| 2026-04-18 11:55 | 15.86866 | 108.19145 | 3291 ft | 220 kts | 81° |
| 2026-04-18 11:55 | 15.87250 | 108.20653 | 2933 ft | 218 kts | 61° |
| 2026-04-18 11:55 | 15.88293 | 108.21696 | 2755 ft | 206 kts | 28° |
| 2026-04-18 11:55 | 15.89657 | 108.21974 | 2557 ft | 198 kts | 357° |
| 2026-04-18 11:56 | 15.90993 | 108.21790 | 2330 ft | 190 kts | 352° |
| 2026-04-18 11:56 | 15.92297 | 108.21595 | 2094 ft | 187 kts | 353° |
| 2026-04-18 11:56 | 15.93575 | 108.21407 | 1856 ft | 183 kts | 353° |
| 2026-04-18 11:56 | 15.94793 | 108.21230 | 1662 ft | 173 kts | 353° |
| 2026-04-18 11:57 | 15.95958 | 108.21061 | 1433 ft | 164 kts | 352° |
| 2026-04-18 11:57 | 15.97083 | 108.20898 | 1253 ft | 162 kts | 354° |
| 2026-04-18 11:57 | 15.98193 | 108.20737 | 1037 ft | 161 kts | 353° |
| 2026-04-18 11:57 | 15.99299 | 108.20576 | 828 ft | 158 kts | 354° |
| 2026-04-18 11:58 | 16.00384 | 108.20423 | 602 ft | 159 kts | 353° |
| 2026-04-18 11:58 | 16.01480 | 108.20260 | 394 ft | 158 kts | 353° |
| 2026-04-18 11:58 | 16.02563 | 108.20102 | 161 ft | 156 kts | 352° |
| 2026-04-18 11:58 | 16.03622 | 108.19953 | 34 ft | 142 kts | 352° |
| 2026-04-18 11:59 | 16.04420 | 108.19834 | 35 ft | 93 kts | 352° |
| 2026-04-18 11:59 | 16.04838 | 108.19776 | 35 ft | 16 kts | 354° |
| 2026-04-18 11:59 | 16.04884 | 108.19835 | 35 ft | 12 kts | 83° |
| 2026-04-18 11:59 | 16.04895 | 108.19925 | 33 ft | 13 kts | 82° |
| 2026-04-18 12:00 | 16.04909 | 108.20025 | 31 ft | 15 kts | 81° |
| 2026-04-18 12:00 | 16.04931 | 108.20130 | 32 ft | 14 kts | 65° |
| 2026-04-18 12:00 | 16.05013 | 108.20149 | 32 ft | 13 kts | 351° |
| 2026-04-18 12:00 | 16.05106 | 108.20135 | 32 ft | 14 kts | 351° |
| 2026-04-18 12:01 | 16.05223 | 108.20188 | 32 ft | 7 kts | 81° |
| 2026-04-18 12:01 | 16.05225 | 108.20204 | 32 ft | 0 kts | 81° |